Time,TemperatureF,DewpointF,PressureIn,WindDirection,WindDirectionDegrees,WindSpeedMPH,WindSpeedGustMPH,Humidity,HourlyPrecipIn,Conditions,Clouds,dailyrainin,SoftwareType,DateUTC
2013-07-05 00:08:00,65.0,46.4,29.81,North,0,0.0,0.0,51,0.00,,,-99.99,Weather View 32 v70,2013-07-05 07:08:00,
2013-07-05 00:23:00,65.0,46.9,29.81,North,0,0.0,0.0,52,0.00,,,-99.99,Weather View 32 v70,2013-07-05 07:23:00,
2013-07-05 00:38:00,65.0,46.9,29.80,North,0,0.0,0.0,52,0.00,,,-99.99,Weather View 32 v70,2013-07-05 07:38:00,
2013-07-05 00:53:00,64.0,46.0,29.80,North,0,0.0,0.0,52,0.00,,,-99.99,Weather View 32 v70,2013-07-05 07:53:00,
2013-07-05 01:08:00,64.0,46.5,29.80,North,0,0.0,0.0,53,0.00,,,-99.99,Weather View 32 v70,2013-07-05 08:08:00,
2013-07-05 01:09:00,64.0,46.5,29.80,North,0,0.0,0.0,53,0.00,,,-99.99,Weather View 32 v70,2013-07-05 08:09:00,
2013-07-05 01:23:00,64.0,46.5,29.79,North,0,0.0,0.0,53,0.00,,,-99.99,Weather View 32 v70,2013-07-05 08:23:00,
2013-07-05 01:38:00,64.0,46.0,29.79,North,0,0.0,0.0,52,0.00,,,-99.99,Weather View 32 v70,2013-07-05 08:38:00,
2013-07-05 01:53:00,64.0,47.0,29.79,North,0,0.0,0.0,54,0.00,,,-99.99,Weather View 32 v70,2013-07-05 08:53:00,
2013-07-05 02:08:00,63.0,47.0,29.79,North,0,0.0,0.0,56,0.00,,,-99.99,Weather View 32 v70,2013-07-05 09:08:00,
2013-07-05 02:09:00,63.0,47.0,29.79,North,0,0.0,0.0,56,0.00,,,-99.99,Weather View 32 v70,2013-07-05 09:09:00,
2013-07-05 02:38:00,61.0,47.9,29.78,North,0,0.0,0.0,62,0.00,,,-99.99,Weather View 32 v70,2013-07-05 09:38:00,
2013-07-05 03:23:00,59.0,48.8,29.78,North,0,0.0,0.0,69,0.00,,,-99.99,Weather View 32 v70,2013-07-05 10:23:00,
2013-07-05 03:38:00,59.0,48.8,29.77,North,0,0.0,0.0,69,0.00,,,-99.99,Weather View 32 v70,2013-07-05 10:38:00,
2013-07-05 03:53:00,59.0,49.2,29.78,North,0,0.0,0.0,70,0.00,,,-99.99,Weather View 32 v70,2013-07-05 10:53:00,
2013-07-05 04:08:00,58.0,49.0,29.77,North,0,0.0,0.0,72,0.00,,,-99.99,Weather View 32 v70,2013-07-05 11:08:00,
2013-07-05 04:23:00,58.0,49.7,29.76,North,0,0.0,0.0,74,0.00,,,-99.99,Weather View 32 v70,2013-07-05 11:23:00,
2013-07-05 04:38:00,58.0,50.1,29.76,North,0,0.0,0.0,75,0.00,,,-99.99,Weather View 32 v70,2013-07-05 11:38:00,
2013-07-05 04:53:00,56.0,48.9,29.77,North,0,0.0,0.0,77,0.00,,,-99.99,Weather View 32 v70,2013-07-05 11:53:00,
2013-07-05 05:08:00,56.0,49.6,29.76,North,0,0.0,0.0,79,0.00,,,-99.99,Weather View 32 v70,2013-07-05 12:08:00,
2013-07-05 05:23:00,56.0,49.9,29.77,North,0,0.0,0.0,80,0.00,,,-99.99,Weather View 32 v70,2013-07-05 12:23:00,
2013-07-05 05:38:00,55.0,49.3,29.77,North,0,0.0,0.0,81,0.00,,,-99.99,Weather View 32 v70,2013-07-05 12:38:00,
2013-07-05 06:00:00,55.0,49.6,29.78,North,0,0.0,0.0,82,0.00,,,-99.99,Weather View 32 v70,2013-07-05 13:00:00,
2013-07-05 06:08:00,55.0,49.6,29.78,North,0,0.0,0.0,82,0.00,,,-99.99,Weather View 32 v70,2013-07-05 13:08:00,
2013-07-05 06:23:00,56.0,50.2,29.78,North,0,0.0,0.0,81,0.00,,,-99.99,Weather View 32 v70,2013-07-05 13:23:00,
2013-07-05 06:38:00,56.0,50.2,29.78,North,0,0.0,0.0,81,0.00,,,-99.99,Weather View 32 v70,2013-07-05 13:38:00,
2013-07-05 06:53:00,57.0,50.9,29.78,North,0,0.0,0.0,80,0.00,,,-99.99,Weather View 32 v70,2013-07-05 13:53:00,
2013-07-05 07:00:00,58.0,51.5,29.79,North,0,0.0,0.0,79,0.00,,,-99.99,Weather View 32 v70,2013-07-05 14:00:00,
2013-07-05 07:38:00,58.0,51.5,29.80,North,0,0.0,0.0,79,0.00,,,-99.99,Weather View 32 v70,2013-07-05 14:38:00,
2013-07-05 07:53:00,58.0,51.2,29.79,North,0,0.0,0.0,78,0.00,,,-99.99,Weather View 32 v70,2013-07-05 14:53:00,
2013-07-05 08:38:00,61.0,51.9,29.78,North,0,0.0,0.0,72,0.00,,,-99.99,Weather View 32 v70,2013-07-05 15:38:00,
2013-07-05 08:53:00,61.0,51.5,29.78,North,0,0.0,0.0,71,0.00,,,-99.99,Weather View 32 v70,2013-07-05 15:53:00,
2013-07-05 09:00:00,61.0,51.9,29.79,North,0,0.0,0.0,72,0.00,,,-99.99,Weather View 32 v70,2013-07-05 16:00:00,
2013-07-05 09:08:00,61.0,51.9,29.79,North,0,0.0,0.0,72,0.00,,,-99.99,Weather View 32 v70,2013-07-05 16:08:00,
2013-07-05 09:23:00,62.0,52.5,29.79,North,0,0.0,0.0,71,0.00,,,-99.99,Weather View 32 v70,2013-07-05 16:23:00,
2013-07-05 09:38:00,63.0,52.6,29.80,North,0,0.0,0.0,69,0.00,,,-99.99,Weather View 32 v70,2013-07-05 16:38:00,
2013-07-05 09:53:00,63.0,52.2,29.81,North,0,0.0,0.0,68,0.00,,,-99.99,Weather View 32 v70,2013-07-05 16:53:00,
2013-07-05 10:00:00,64.0,52.8,29.81,North,0,0.0,0.0,67,0.00,,,-99.99,Weather View 32 v70,2013-07-05 17:00:00,
2013-07-05 10:08:00,64.0,52.8,29.81,North,0,0.0,0.0,67,0.00,,,-99.99,Weather View 32 v70,2013-07-05 17:08:00,
2013-07-05 10:23:00,64.0,53.2,29.81,North,0,0.0,0.0,68,0.00,,,-99.99,Weather View 32 v70,2013-07-05 17:23:00,
2013-07-05 10:38:00,65.0,54.6,29.81,North,0,0.0,0.0,69,0.00,,,-99.99,Weather View 32 v70,2013-07-05 17:38:00,
2013-07-05 10:53:00,63.0,54.9,29.81,North,0,0.0,0.0,75,0.00,,,-99.99,Weather View 32 v70,2013-07-05 17:53:00,
2013-07-05 11:00:00,64.0,55.1,29.81,North,0,0.0,0.0,73,0.00,,,-99.99,Weather View 32 v70,2013-07-05 18:00:00,
2013-07-05 11:08:00,64.0,55.1,29.81,North,0,0.0,0.0,73,0.00,,,-99.99,Weather View 32 v70,2013-07-05 18:08:00,
2013-07-05 11:23:00,63.0,54.6,29.81,North,0,0.0,0.0,74,0.00,,,-99.99,Weather View 32 v70,2013-07-05 18:23:00,
2013-07-05 11:38:00,64.0,55.1,29.82,North,0,0.0,0.0,73,0.00,,,-99.99,Weather View 32 v70,2013-07-05 18:38:00,
2013-07-05 11:53:00,64.0,55.1,29.82,North,0,0.0,0.0,73,0.00,,,-99.99,Weather View 32 v70,2013-07-05 18:53:00,
2013-07-05 12:00:00,63.0,53.8,29.82,North,0,0.0,0.0,72,0.00,,,-99.99,Weather View 32 v70,2013-07-05 19:00:00,
2013-07-05 12:08:00,63.0,53.8,29.82,North,0,0.0,0.0,72,0.00,,,-99.99,Weather View 32 v70,2013-07-05 19:08:00,
2013-07-05 12:23:00,64.0,54.0,29.81,North,0,0.0,0.0,70,0.00,,,-99.99,Weather View 32 v70,2013-07-05 19:23:00,
2013-07-05 12:38:00,64.0,54.8,29.81,North,0,0.0,0.0,72,0.00,,,-99.99,Weather View 32 v70,2013-07-05 19:38:00,
2013-07-05 12:53:00,66.0,55.1,29.81,North,0,0.0,0.0,68,0.00,,,-99.99,Weather View 32 v70,2013-07-05 19:53:00,
2013-07-05 13:00:00,65.0,54.6,29.81,North,0,0.0,0.0,69,0.00,,,-99.99,Weather View 32 v70,2013-07-05 20:00:00,
2013-07-05 13:08:00,65.0,54.6,29.81,North,0,0.0,0.0,69,0.00,,,-99.99,Weather View 32 v70,2013-07-05 20:08:00,
2013-07-05 13:23:00,65.0,54.6,29.81,North,0,0.0,0.0,69,0.00,,,-99.99,Weather View 32 v70,2013-07-05 20:23:00,
2013-07-05 13:38:00,65.0,54.2,29.81,North,0,0.0,0.0,68,0.00,,,-99.99,Weather View 32 v70,2013-07-05 20:38:00,
2013-07-05 13:53:00,66.0,54.7,29.81,North,0,0.0,0.0,67,0.00,,,-99.99,Weather View 32 v70,2013-07-05 20:53:00,
2013-07-05 14:00:00,66.0,54.7,29.81,North,0,0.0,0.0,67,0.00,,,-99.99,Weather View 32 v70,2013-07-05 21:00:00,
2013-07-05 14:08:00,66.0,54.7,29.81,North,0,0.0,0.0,67,0.00,,,-99.99,Weather View 32 v70,2013-07-05 21:08:00,
2013-07-05 14:23:00,66.0,53.9,29.81,North,0,0.0,0.0,65,0.00,,,-99.99,Weather View 32 v70,2013-07-05 21:23:00,
2013-07-05 14:38:00,65.0,52.9,29.81,North,0,0.0,0.0,65,0.00,,,-99.99,Weather View 32 v70,2013-07-05 21:38:00,
2013-07-05 14:53:00,66.0,54.3,29.81,North,0,0.0,0.0,66,0.00,,,-99.99,Weather View 32 v70,2013-07-05 21:53:00,
2013-07-05 15:00:00,67.0,54.8,29.80,North,0,0.0,0.0,65,0.00,,,-99.99,Weather View 32 v70,2013-07-05 22:00:00,
2013-07-05 15:08:00,67.0,54.8,29.80,North,0,0.0,0.0,65,0.00,,,-99.99,Weather View 32 v70,2013-07-05 22:08:00,
2013-07-05 15:23:00,67.0,54.4,29.81,North,0,0.0,0.0,64,0.00,,,-99.99,Weather View 32 v70,2013-07-05 22:23:00,
2013-07-05 15:38:00,66.0,54.7,29.80,North,0,0.0,0.0,67,0.00,,,-99.99,Weather View 32 v70,2013-07-05 22:38:00,
2013-07-05 15:53:00,68.0,55.8,29.80,North,0,0.0,0.0,65,0.00,,,-99.99,Weather View 32 v70,2013-07-05 22:53:00,
2013-07-05 16:00:00,67.0,55.2,29.80,North,0,0.0,0.0,66,0.00,,,-99.99,Weather View 32 v70,2013-07-05 23:00:00,
2013-07-05 16:08:00,67.0,55.2,29.80,North,0,0.0,0.0,66,0.00,,,-99.99,Weather View 32 v70,2013-07-05 23:08:00,
2013-07-05 16:23:00,68.0,56.6,29.80,North,0,0.0,0.0,67,0.00,,,-99.99,Weather View 32 v70,2013-07-05 23:23:00,
2013-07-05 16:38:00,68.0,56.2,29.79,North,0,0.0,0.0,66,0.00,,,-99.99,Weather View 32 v70,2013-07-05 23:38:00,
2013-07-05 16:53:00,68.0,56.2,29.79,North,0,0.0,0.0,66,0.00,,,-99.99,Weather View 32 v70,2013-07-05 23:53:00,
2013-07-05 17:00:00,67.0,55.6,29.79,North,0,0.0,0.0,67,0.00,,,-99.99,Weather View 32 v70,2013-07-06 00:00:00,
2013-07-05 17:08:00,67.0,55.6,29.79,North,0,0.0,0.0,67,0.00,,,-99.99,Weather View 32 v70,2013-07-06 00:08:00,
2013-07-05 17:23:00,67.0,56.1,29.79,North,0,0.0,0.0,68,0.00,,,-99.99,Weather View 32 v70,2013-07-06 00:23:00,
2013-07-05 17:38:00,67.0,55.6,29.79,North,0,0.0,0.0,67,0.00,,,-99.99,Weather View 32 v70,2013-07-06 00:38:00,
2013-07-05 17:53:00,66.0,55.9,29.78,North,0,0.0,0.0,70,0.00,,,-99.99,Weather View 32 v70,2013-07-06 00:53:00,
2013-07-05 18:00:00,67.0,56.9,29.78,North,0,0.0,0.0,70,0.00,,,-99.99,Weather View 32 v70,2013-07-06 01:00:00,
2013-07-05 18:08:00,67.0,56.9,29.78,North,0,0.0,0.0,70,0.00,,,-99.99,Weather View 32 v70,2013-07-06 01:08:00,
2013-07-05 18:23:00,66.0,56.3,29.78,North,0,0.0,0.0,71,0.00,,,-99.99,Weather View 32 v70,2013-07-06 01:23:00,
2013-07-05 18:38:00,66.0,55.5,29.78,North,0,0.0,0.0,69,0.00,,,-99.99,Weather View 32 v70,2013-07-06 01:38:00,
2013-07-05 18:53:00,65.0,55.3,29.78,North,0,0.0,0.0,71,0.00,,,-99.99,Weather View 32 v70,2013-07-06 01:53:00,
2013-07-05 19:00:00,64.0,54.8,29.78,North,0,0.0,0.0,72,0.00,,,-99.99,Weather View 32 v70,2013-07-06 02:00:00,
2013-07-05 19:08:00,64.0,54.8,29.78,North,0,0.0,0.0,72,0.00,,,-99.99,Weather View 32 v70,2013-07-06 02:08:00,
2013-07-05 19:23:00,63.0,54.6,29.78,North,0,0.0,0.0,74,0.00,,,-99.99,Weather View 32 v70,2013-07-06 02:23:00,
2013-07-05 19:38:00,63.0,54.6,29.78,North,0,0.0,0.0,74,0.00,,,-99.99,Weather View 32 v70,2013-07-06 02:38:00,
2013-07-05 19:53:00,63.0,55.7,29.78,North,0,0.0,0.0,77,0.00,,,-99.99,Weather View 32 v70,2013-07-06 02:53:00,
2013-07-05 20:00:00,63.0,55.7,29.79,North,0,0.0,0.0,77,0.00,,,-99.99,Weather View 32 v70,2013-07-06 03:00:00,
2013-07-05 20:08:00,63.0,55.7,29.79,North,0,0.0,0.0,77,0.00,,,-99.99,Weather View 32 v70,2013-07-06 03:08:00,
2013-07-05 20:23:00,61.0,54.1,29.80,North,0,0.0,0.0,78,0.00,,,-99.99,Weather View 32 v70,2013-07-06 03:23:00,
2013-07-05 20:38:00,60.0,54.1,29.80,North,0,0.0,0.0,81,0.00,,,-99.99,Weather View 32 v70,2013-07-06 03:38:00,
2013-07-05 20:53:00,60.0,54.5,29.79,North,0,0.0,0.0,82,0.00,,,-99.99,Weather View 32 v70,2013-07-06 03:53:00,
2013-07-05 21:00:00,59.0,53.5,29.80,North,0,0.0,0.0,82,0.00,,,-99.99,Weather View 32 v70,2013-07-06 04:00:00,
2013-07-05 21:08:00,59.0,53.5,29.80,North,0,0.0,0.0,82,0.00,,,-99.99,Weather View 32 v70,2013-07-06 04:08:00,
2013-07-05 21:23:00,59.0,54.2,29.80,North,0,0.0,0.0,84,0.00,,,-99.99,Weather View 32 v70,2013-07-06 04:23:00,
2013-07-05 21:38:00,59.0,54.5,29.80,North,0,0.0,0.0,85,0.00,,,-99.99,Weather View 32 v70,2013-07-06 04:38:00,
2013-07-05 21:53:00,59.0,54.5,29.80,North,0,0.0,0.0,85,0.00,,,-99.99,Weather View 32 v70,2013-07-06 04:53:00,
2013-07-05 22:00:00,58.0,53.8,29.80,North,0,0.0,0.0,86,0.00,,,-99.99,Weather View 32 v70,2013-07-06 05:00:00,
2013-07-05 22:08:00,58.0,53.8,29.80,North,0,0.0,0.0,86,0.00,,,-99.99,Weather View 32 v70,2013-07-06 05:08:00,
2013-07-05 22:23:00,58.0,53.8,29.80,North,0,0.0,0.0,86,0.00,,,-99.99,Weather View 32 v70,2013-07-06 05:23:00,
2013-07-05 22:38:00,58.0,53.8,29.80,North,0,0.0,0.0,86,0.00,,,-99.99,Weather View 32 v70,2013-07-06 05:38:00,
2013-07-05 22:53:00,57.0,53.2,29.80,North,0,0.0,0.0,87,0.00,,,-99.99,Weather View 32 v70,2013-07-06 05:53:00,
2013-07-05 23:00:00,57.0,53.2,29.80,North,0,0.0,0.0,87,0.00,,,-99.99,Weather View 32 v70,2013-07-06 06:00:00,
2013-07-05 23:08:00,57.0,53.2,29.80,North,0,0.0,0.0,87,0.00,,,-99.99,Weather View 32 v70,2013-07-06 06:08:00,
2013-07-05 23:23:00,57.0,53.5,29.80,North,0,0.0,0.0,88,0.00,,,-99.99,Weather View 32 v70,2013-07-06 06:23:00,
2013-07-05 23:38:00,56.0,52.5,29.80,North,0,0.0,0.0,88,0.00,,,-99.99,Weather View 32 v70,2013-07-06 06:38:00,
2013-07-05 23:53:00,56.0,52.8,29.80,North,0,0.0,0.0,89,0.00,,,-99.99,Weather View 32 v70,2013-07-06 06:53:00,